Node, Wyoming
Current Conditions -  °F | °C
As of 7:55 PM on Sunday 23 Nov 2014 (Local Time) from KGUR Reporting Station
Clear Clear  
Wind Chill: 25°   Ceiling: Unl
Heat Index: 33°   Visibility: 10mi
Dew Point: 27°   Wind: 9mph
Humidity: 78%   Direction: 310°NW
Pressure: 29.86"   Gusts: NA
Location:  42.8183°N, 104.414°W
Report Text: KGUR 240255Z AUTO 31008KT 10SM CLR 01/M03 A2986 RMK AO2 T00061029
Loading
Personal Weather Stations






























Interactive Weather Map New forecast layout! Learn more

10-Day Weather Forecast

Advertisements
Track Severe Weather on mobile